Terminal Aerodrome Forecast
Issued by NWS

Home | Current Version | Previous Version | Text Only | Print | Product List | Glossary On
Versions: 1 2 3 4 5 6 7 8 9 10 11 12 13 14 15
000
FTUS44 KLZK 201700
TAFLLQ
TAF
KLLQ 201722Z 2018/2118 VRB03KT P6SM SCT060 SCT120
     FM210100 00000KT P6SM SCT120 SCT250
      TEMPO 2108/2112 4SM BR
     FM211400 VRB04KT P6SM SCT250=

USA.gov is the U.S. government's official web portal to all federal, state and local government web resources and services.